M I D A S
Marine Information and Data Acquisition System
Tripno 220 of the Zeeleeuw from 2002-02-21 08:39:20 to 2002-02-21 10:52:40
Back to CruiseResearch ActivitiesStationsMapUnderway DataData graphs

EquipmentUnitsComment
TimeDGPSUTC
LatitudeDGPSDM.mWGS84
LongitudeDGPSDM.mWGS84
TemperatureSBE03/SBE38deg celciusITS90
ConductivitySBE21S/mITS90
SalinitySBE21 Practical Salinity Units
ChlorophylAChelsea fluorimeterg/lCalibrated in Aceton
Missing or incorrect values are displayed as -999
Sea surface data collected by the RV Zeeleeuw from 2002-02-21 08:39:20 to 2002-02-21 10:52:40
                                                                                    Next 1000 lines
Time Latitude Longitude Temperature Conductivity Salinity ChlorophylA
2002-02-21 08:39:26 51°13.686 2°55.904 12.560794 1.099636 6.870667  
2002-02-21 08:39:31 51°13.687 2°55.904 12.57126 1.099636 6.870555  
2002-02-21 08:39:36 51°13.687 2°55.903 12.453654 1.099636 6.870667  
2002-02-21 08:39:41 51°13.688 2°55.901 12.417947 1.099636 6.870778  
2002-02-21 08:39:46 51°13.689 2°55.898 12.463639 1.099636 6.870778  
2002-02-21 08:39:50 51°13.689 2°55.894 12.463639 1.099636 6.870778  
2002-02-21 08:39:57 51°13.691 2°55.886 8.793534 1.099636 6.87089  
2002-02-21 08:40:02 51°13.692 2°55.88 7.604399 1.099537 6.870108  
2002-02-21 08:40:07 51°13.694 2°55.872 7.611748 1.097347 6.851356  
2002-02-21 08:40:12 51°13.695 2°55.864 7.647557 1.098044 6.862281  
2002-02-21 08:40:17 51°13.697 2°55.855 7.646924 1.099636 6.874574  
2002-02-21 08:40:22 51°13.698 2°55.845 7.646924 1.099636 6.874574  
2002-02-21 08:40:27 51°13.7 2°55.835 7.62946 1.080831 6.74385  
2002-02-21 08:40:32 51°13.702 2°55.824 7.664043 1.087596 6.791247  
2002-02-21 08:40:37 51°13.703 2°55.815 7.650426 1.088691 6.812228  
2002-02-21 08:40:42 51°13.705 2°55.805 7.691414 1.130684 7.10263  
2002-02-21 08:40:46 51°13.706 2°55.798 7.369711 1.022437 6.395933  
2002-02-21 08:40:51 51°13.707 2°55.788 7.369711 1.022437 6.395933  
2002-02-21 08:40:56 51°13.707 2°55.779 7.302603 1.327338 8.758759  
2002-02-21 08:41:01 51°13.708 2°55.769 7.268265 2.265595 16.85383  
2002-02-21 08:41:06 51°13.709 2°55.76 7.268069 2.22454 17.62392  
2002-02-21 08:41:11 51°13.71 2°55.751 7.264986 2.155909 18.021853  
2002-02-21 08:41:16 51°13.71 2°55.743 7.258136 2.144227 18.434748  
2002-02-21 08:41:21 51°13.71 2°55.735 7.234299 1.864105 16.315953  
2002-02-21 08:41:26 51°13.71 2°55.728 7.234299 1.864105 16.315953  
2002-02-21 08:41:31 51°13.711 2°55.72 7.244921 1.626924 14.327861  
2002-02-21 08:41:36 51°13.71 2°55.714 7.23895 1.552829 13.73833  
2002-02-21 08:41:41 51°13.71 2°55.708 7.23332 1.514743 13.435272  
2002-02-21 08:41:46 51°13.711 2°55.705 7.22392 1.512251 13.4592  
2002-02-21 08:41:51 51°13.712 2°55.703 7.22392 1.512251 13.4592  
2002-02-21 08:41:56 51°13.713 2°55.704 7.219758 1.438786 12.773606  
2002-02-21 08:42:00 51°13.716 2°55.705 7.19483 1.372119 12.152472  
2002-02-21 08:42:06 51°13.72 2°55.707 7.161805 1.398824 12.416385  
2002-02-21 08:42:11 51°13.725 2°55.708 7.148718 1.385969 12.30259  
2002-02-21 08:42:16 51°13.73 2°55.708 7.137737 1.349204 11.956419  
2002-02-21 08:42:21 51°13.737 2°55.707 7.137737 1.349204 11.956419  
2002-02-21 08:42:26 51°13.745 2°55.704 7.139747 1.314138 11.627079  
2002-02-21 08:42:31 51°13.753 2°55.699 7.169353 1.246611 10.989473  
2002-02-21 08:42:36 51°13.761 2°55.692 8.43586 1.15004 10.080596  
2002-02-21 08:42:41 51°13.77 2°55.684 7.302505 1.058092 9.221924  
2002-02-21 08:42:46 51°13.779 2°55.676 7.135629 0.960323 8.311807  
2002-02-21 08:42:51 51°13.789 2°55.669 7.135629 0.960323 8.311807  
2002-02-21 08:42:56 51°13.799 2°55.66 7.129892 0.883478 7.60228  
2002-02-21 08:43:01 51°13.809 2°55.652 7.132785 0.929601 8.031246  
2002-02-21 08:43:06 51°13.819 2°55.644 7.1421 0.988763 8.582312  
2002-02-21 08:43:11 51°13.83 2°55.635 7.230236 0.939145 8.121445  
2002-02-21 08:43:16 51°13.84 2°55.626 7.165383 0.83548 7.162673  
2002-02-21 08:43:21 51°13.851 2°55.617 7.165383 0.83548 7.162673  
2002-02-21 08:43:26 51°13.863 2°55.609 7.180182 0.762269 6.493005  
2002-02-21 08:43:31 51°13.874 2°55.601 7.186894 0.727116 6.174137  
2002-02-21 08:43:36 51°13.886 2°55.592 7.207956 0.748763 6.371752  
2002-02-21 08:43:41 51°13.897 2°55.583 7.229159 0.784219 6.696587  
2002-02-21 08:43:46 51°13.909 2°55.575 7.283186 0.83091 7.124535  
2002-02-21 08:43:51 51°13.92 2°55.566 7.283186 0.83091 7.124535  
2002-02-21 08:43:56 51°13.932 2°55.558 7.286463 0.897592 7.739792  
2002-02-21 08:44:01 51°13.944 2°55.549 7.231411 0.972056 8.431272  
2002-02-21 08:44:06 51°13.955 2°55.541 7.336092 1.09023 9.539283  
2002-02-21 08:44:11 51°13.967 2°55.532 7.241152 1.257068 11.121723  
2002-02-21 08:44:16 51°13.978 2°55.524 7.186012 1.399622 12.488753  
2002-02-21 08:44:21 51°13.99 2°55.515 7.218289 1.530298 13.752033  
2002-02-21 08:44:26 51°14.002 2°55.507 7.218289 1.530298 13.752033  
2002-02-21 08:44:31 51°14.014 2°55.498 7.260044 1.607879 14.510616  
2002-02-21 08:44:36 51°14.025 2°55.49 7.187139 1.672016 15.143216  
2002-02-21 08:44:41 51°14.037 2°55.481 7.232635 1.707232 15.495196  
2002-02-21 08:44:47 51°14.051 2°55.471 7.244726 1.725691 15.683567  
2002-02-21 08:44:51 51°14.061 2°55.464 7.244726 1.725691 15.683567  
2002-02-21 08:44:56 51°14.072 2°55.455 7.217701 1.714316 15.577585  
2002-02-21 08:45:01 51°14.084 2°55.446 7.229501 1.70384 15.477092  
2002-02-21 08:45:06 51°14.095 2°55.438 7.240222 1.728485 15.723382  
2002-02-21 08:45:11 51°14.107 2°55.429 7.327978 1.729383 15.731505  
2002-02-21 08:45:16 51°14.118 2°55.42 7.245068 1.711124 15.549052  
2002-02-21 08:45:21 51°14.13 2°55.41 7.245068 1.711124 15.549052  
2002-02-21 08:45:26 51°14.141 2°55.401 7.241446 1.71262 15.561578  
2002-02-21 08:45:31 51°14.152 2°55.392 7.239439 1.693963 15.37322  
2002-02-21 08:45:36 51°14.163 2°55.381 7.27575 1.681393 15.245535  
2002-02-21 08:45:41 51°14.174 2°55.371 7.223137 1.668026 15.109791  
2002-02-21 08:45:46 51°14.185 2°55.36 7.236062 1.646379 14.894994  
2002-02-21 08:45:51 51°14.196 2°55.349 7.236062 1.646379 14.894994  
2002-02-21 08:45:56 51°14.206 2°55.337 7.259897 1.610871 14.546289  
2002-02-21 08:46:01 51°14.216 2°55.325 7.165383 1.568787 14.135071  
2002-02-21 08:46:06 51°14.226 2°55.312 7.195173 1.528803 13.74577  
2002-02-21 08:46:11 51°14.236 2°55.299 7.152983 1.489822 13.367859  
2002-02-21 08:46:16 51°14.245 2°55.285 7.192919 1.443372 12.920869  
2002-02-21 08:46:21 51°14.254 2°55.271 7.192919 1.443372 12.920869  
2002-02-21 08:46:26 51°14.263 2°55.255 7.154405 1.385372 12.365734  
2002-02-21 08:46:31 51°14.271 2°55.24 7.19483 1.336652 11.900059  
2002-02-21 08:46:36 51°14.28 2°55.224 7.162884 1.294815 11.502431  
2002-02-21 08:46:41 51°14.288 2°55.208 7.171362 1.270513 11.272586  
2002-02-21 08:46:46 51°14.296 2°55.192 7.213294 1.254579 11.12298  
2002-02-21 08:46:51 51°14.304 2°55.176 7.213294 1.254579 11.12298  
2002-02-21 08:46:56 51°14.312 2°55.16 7.170137 1.274198 11.312083  
2002-02-21 08:47:01 51°14.32 2°55.143 7.174841 1.280672 11.374829  
2002-02-21 08:47:06 51°14.327 2°55.127 7.231998 1.298998 11.549666  
2002-02-21 08:47:11 51°14.335 2°55.11 7.231264 1.352891 12.068991  
2002-02-21 08:47:16 51°14.343 2°55.094 7.237187 1.406797 12.590177  
2002-02-21 08:47:21 51°14.35 2°55.078 7.237187 1.406797 12.590177  
2002-02-21 08:47:26 51°14.358 2°55.062 7.243159 1.482545 13.325149  
2002-02-21 08:47:31 51°14.366 2°55.046 7.182435 1.581651 14.293875  
2002-02-21 08:47:36 51°14.373 2°55.029 7.124547 1.741955 15.873283  
2002-02-21 08:47:41 51°14.381 2°55.015 7.100366 1.892566 17.369419  
2002-02-21 08:47:46 51°14.388 2°55.001 7.100366 2.078112 19.231886  
2002-02-21 08:47:51 51°14.396 2°54.986 7.100366 2.078112 19.231886  
2002-02-21 08:47:56 51°14.403 2°54.972 7.025019 2.297441 21.459834  
2002-02-21 08:48:01 51°14.412 2°54.959 7.012886 2.417902 22.694528  
2002-02-21 08:48:06 51°14.421 2°54.947 7.01883 2.515997 23.716307  
2002-02-21 08:48:11 51°14.43 2°54.936 7.061256 2.626518 24.887189  
2002-02-21 08:48:16 51°14.439 2°54.927 7.070533 2.686241 25.531193  
2002-02-21 08:48:21 51°14.448 2°54.919 7.070533 2.686241 25.531193  
2002-02-21 08:48:26 51°14.458 2°54.913 7.028064 2.717456 25.886119  
2002-02-21 08:48:31 51°14.466 2°54.907 7.009791 2.765584 26.408535  
2002-02-21 08:48:36 51°14.475 2°54.902 7.022072 2.779092 26.559668  
2002-02-21 08:48:41 51°14.484 2°54.897 6.985076 2.764183 26.411204  
2002-02-21 08:48:46 51°14.492 2°54.892 6.981635 2.745672 26.21785  
2002-02-21 08:48:51 51°14.501 2°54.89 6.981635 2.745672 26.21785  
2002-02-21 08:48:56 51°14.511 2°54.89 6.979473 2.712054 25.865436  
2002-02-21 08:49:01 51°14.52 2°54.889 6.980554 2.698047 25.721022  
2002-02-21 08:49:06 51°14.528 2°54.891 6.98252 2.691945 25.665176  
2002-02-21 08:49:11 51°14.537 2°54.892 6.983749 2.721059 25.981511  
2002-02-21 08:49:16 51°14.545 2°54.892 6.99687 2.737868 26.163945  
2002-02-21 08:49:21 51°14.552 2°54.896 6.99687 2.737868 26.163945  
2002-02-21 08:49:26 51°14.559 2°54.895 7.020746 2.827026 27.108356  
2002-02-21 08:49:31 51°14.566 2°54.898 7.075293 2.905089 27.936723  
2002-02-21 08:49:36 51°14.574 2°54.899 7.121506 2.979761 28.731503  
2002-02-21 08:49:40 51°14.58 2°54.9 7.047608 3.036322 29.334366  
2002-02-21 08:49:46 51°14.589 2°54.901 7.051978 3.076168 29.757132  
2002-02-21 08:49:51 51°14.597 2°54.9 7.051978 3.076168 29.757132  
2002-02-21 08:49:56 51°14.604 2°54.901 7.094479 3.108008 30.090448  
2002-02-21 08:50:01 51°14.612 2°54.899 7.053843 3.135443 30.373936  
2002-02-21 08:50:06 51°14.62 2°54.897 7.093645 3.155669 30.580306  
2002-02-21 08:50:11 51°14.628 2°54.896 7.093007 3.166684 30.690933  
2002-02-21 08:50:16 51°14.636 2°54.893 7.052223 3.174394 30.767625  
2002-02-21 08:50:21 51°14.644 2°54.891 7.052223 3.174394 30.767625  
2002-02-21 08:50:26 51°14.652 2°54.89 7.048001 3.189916 30.928885  
2002-02-21 08:50:31 51°14.661 2°54.888 7.043975 3.181204 30.834648  
2002-02-21 08:50:36 51°14.669 2°54.888 7.050554 3.199729 31.032718  
2002-02-21 08:50:41 51°14.678 2°54.888 7.095313 3.198428 31.018741  
2002-02-21 08:50:46 51°14.686 2°54.887 7.057378 3.204636 31.084649  
2002-02-21 08:50:51 51°14.695 2°54.888 7.057378 3.204636 31.084649  
2002-02-21 08:50:56 51°14.704 2°54.889 7.138178 3.205437 31.092493  
2002-02-21 08:51:01 51°14.713 2°54.89 7.138521 3.205037 31.093509  
2002-02-21 08:51:06 51°14.722 2°54.891 7.056838 3.206339 31.106732  
2002-02-21 08:51:11 51°14.731 2°54.892 7.054481 3.208642 31.130713  
2002-02-21 08:51:16 51°14.741 2°54.892 7.091045 3.210945 31.153172  
2002-02-21 08:51:21 51°14.75 2°54.892 7.091045 3.210945 31.153172  
2002-02-21 08:51:26 51°14.759 2°54.894 7.090407 3.213249 31.17487  
2002-02-21 08:51:31 51°14.769 2°54.894 7.05674 3.214751 31.191007  
2002-02-21 08:51:36 51°14.778 2°54.896 7.115965 3.215552 31.200377  
2002-02-21 08:51:41 51°14.787 2°54.897 7.083145 3.213449 31.178545  
2002-02-21 08:51:46 51°14.796 2°54.898 7.083881 3.216253 31.208671  
2002-02-21 08:51:51 51°14.805 2°54.901 7.124743 3.216653 31.215263  
2002-02-21 08:51:56 51°14.814 2°54.902 7.124743 3.216653 31.215263  
2002-02-21 08:52:01 51°14.823 2°54.903 7.08393 3.218156 31.231405  
2002-02-21 08:52:06 51°14.832 2°54.905 7.083734 3.222362 31.272788  
2002-02-21 08:52:11 51°14.841 2°54.908 7.081329 3.224965 31.291598  
2002-02-21 08:52:16 51°14.85 2°54.91 7.117828 3.223764 31.274102  
2002-02-21 08:52:21 51°14.859 2°54.912 7.117828 3.223764 31.274102  
2002-02-21 08:52:26 51°14.868 2°54.916 7.072987 3.233878 31.378958  
2002-02-21 08:52:31 51°14.877 2°54.917 7.069109 3.236081 31.40187  
2002-02-21 08:52:36 51°14.885 2°54.918 7.106989 3.23478 31.387112  
2002-02-21 08:52:41 51°14.894 2°54.919 7.065821 3.237784 31.420169  
2002-02-21 08:52:46 51°14.902 2°54.919 7.067342 3.238185 31.424474  
2002-02-21 08:52:51 51°14.911 2°54.916 7.067342 3.238185 31.424474  
2002-02-21 08:52:56 51°14.919 2°54.914 7.066312 3.236382 31.4074  
2002-02-21 08:53:01 51°14.928 2°54.91 7.064054 3.238285 31.432459  
2002-02-21 08:53:06 51°14.936 2°54.909 7.059685 3.236582 31.417226  
2002-02-21 08:53:11 51°14.945 2°54.904 7.080789 3.239186 31.446758  
2002-02-21 08:53:16 51°14.953 2°54.902 7.160825 3.238085 31.436449  
2002-02-21 08:53:21 51°14.962 2°54.9 7.160825 3.238085 31.436449  
2002-02-21 08:53:26 51°14.97 2°54.895 7.144061 3.240088 31.458756  
2002-02-21 08:53:31 51°14.978 2°54.893 7.158179 3.235881 31.414293  
2002-02-21 08:53:36 51°14.987 2°54.891 7.168961 3.238285 31.441675  
2002-02-21 08:53:41 51°14.996 2°54.888 7.177536 3.240488 31.46537  
2002-02-21 08:53:46 51°15.004 2°54.886 7.223675 3.245896 31.510454  
2002-02-21 08:53:51 51°15.012 2°54.883 7.223675 3.245896 31.510454  
2002-02-21 08:53:56 51°15.021 2°54.881 7.190323 3.251304 31.546274  
2002-02-21 08:54:01 51°15.029 2°54.877 7.235034 3.257112 31.593298  
2002-02-21 08:54:06 51°15.037 2°54.874 7.199581 3.260918 31.617232  
2002-02-21 08:54:11 51°15.046 2°54.871 7.203695 3.261619 31.613203  
2002-02-21 08:54:16 51°15.054 2°54.865 7.207809 3.266326 31.653729  
2002-02-21 08:54:21 51°15.063 2°54.862 7.207809 3.266326 31.653729  
2002-02-21 08:54:26 51°15.072 2°54.856 7.211042 3.26933 31.679048  
2002-02-21 08:54:31 51°15.081 2°54.852 7.254025 3.270131 31.681478  
2002-02-21 08:54:36 51°15.09 2°54.848 7.216526 3.270933 31.686993  
2002-02-21 08:54:41 51°15.098 2°54.843 7.257891 3.273937 31.713842  
2002-02-21 08:54:46 51°15.107 2°54.838 7.25838 3.271734 31.686336  
2002-02-21 08:54:51 51°15.116 2°54.834 7.25838 3.271734 31.686336  
2002-02-21 08:54:56 51°15.125 2°54.827 7.219562 3.272335 31.688158  
2002-02-21 08:55:01 51°15.135 2°54.822 7.259897 3.278344 31.748783  
2002-02-21 08:55:07 51°15.146 2°54.814 7.22015 3.279445 31.758288  
2002-02-21 08:55:11 51°15.154 2°54.809 7.341908 3.280447 31.765945  
2002-02-21 08:55:16 51°15.164 2°54.801 7.223137 3.274337 31.698852  
2002-02-21 08:55:21 51°15.174 2°54.795 7.224948 3.281749 31.777598  
2002-02-21 08:55:26 51°15.184 2°54.788 7.224948 3.281749 31.777598  
2002-02-21 08:55:31 51°15.195 2°54.783 7.225976 3.282851 31.787101  
2002-02-21 08:55:36 51°15.206 2°54.777 7.222304 3.283451 31.794323  
2002-02-21 08:55:40 51°15.215 2°54.774 7.218338 3.284653 31.805673  
2002-02-21 08:55:46 51°15.228 2°54.768 7.213196 3.284052 31.798451  
2002-02-21 08:55:51 51°15.239 2°54.761 7.211825 3.287257 31.831297  
2002-02-21 08:55:56 51°15.251 2°54.756 7.211825 3.287257 31.831297  
2002-02-21 08:56:01 51°15.262 2°54.748 7.211678 3.288559 31.844495  
2002-02-21 08:56:06 51°15.274 2°54.742 7.211776 3.289461 31.853395  
2002-02-21 08:56:11 51°15.285 2°54.735 7.252508 3.290262 31.863544  
2002-02-21 08:56:16 51°15.296 2°54.729 7.253731 3.291163 31.875545  
2002-02-21 08:56:21 51°15.307 2°54.723 7.254514 3.292065 31.8891  
2002-02-21 08:56:26 51°15.319 2°54.717 7.254514 3.292065 31.8891  
2002-02-21 08:56:31 51°15.33 2°54.711 7.212217 3.292165 31.890951  
2002-02-21 08:56:36 51°15.342 2°54.706 7.250354 3.293367 31.905408  
2002-02-21 08:56:41 51°15.354 2°54.701 7.207418 3.293968 31.91186  
2002-02-21 08:56:46 51°15.365 2°54.696 7.244383 3.293467 31.907259  
2002-02-21 08:56:51 51°15.375 2°54.692 7.244383 3.293467 31.907259  
2002-02-21 08:56:56 51°15.386 2°54.687 7.281083 3.293667 31.908634  
2002-02-21 08:57:01 51°15.397 2°54.684 7.197622 3.29517 31.924767  
2002-02-21 08:57:05 51°15.406 2°54.68 7.277365 3.297674 31.952434  
2002-02-21 08:57:11 51°15.418 2°54.676 7.194046 3.298775 31.965822  
2002-02-21 08:57:16 51°15.429 2°54.673 7.18998 3.297473 31.951837  
2002-02-21 08:57:21 51°15.441 2°54.67 7.18998 3.297473 31.951837  
2002-02-21 08:57:26 51°15.452 2°54.666 7.227151 3.299877 31.979991  
2002-02-21 08:57:31 51°15.464 2°54.664 7.224116 3.301279 31.998169  
2002-02-21 08:57:36 51°15.476 2°54.66 7.223039 3.303182 32.020954  
2002-02-21 08:57:41 51°15.488 2°54.658 7.18366 3.304184 32.034056  
2002-02-21 08:57:46 51°15.499 2°54.655 7.184052 3.305987 32.057335  
2002-02-21 08:57:51 51°15.511 2°54.652 7.184052 3.305987 32.057335  
2002-02-21 08:57:56 51°15.523 2°54.649 7.187629 3.307489 32.076608  
2002-02-21 08:58:01 51°15.535 2°54.646 7.231019 3.308491 32.090502  
2002-02-21 08:58:06 51°15.547 2°54.644 7.234201 3.308291 32.091474  
2002-02-21 08:58:11 51°15.558 2°54.641 7.195026 3.308691 32.097346  
2002-02-21 08:58:16 51°15.569 2°54.639 7.196005 3.309092 32.101654  
2002-02-21 08:58:21 51°15.581 2°54.637 7.196005 3.309092 32.101654  
2002-02-21 08:58:26 51°15.593 2°54.635 7.236404 3.308591 32.095487  
2002-02-21 08:58:31 51°15.604 2°54.632 7.197181 3.309492 32.104399  
2002-02-21 08:58:36 51°15.615 2°54.628 7.197916 3.312097 32.129277  
2002-02-21 08:58:41 51°15.625 2°54.625 7.198112 3.311996 32.126636  
2002-02-21 08:58:46 51°15.636 2°54.621 7.239146 3.313298 32.137508  
2002-02-21 08:58:51 51°15.647 2°54.618 7.239146 3.313298 32.137508  
2002-02-21 08:58:56 51°15.658 2°54.614 7.198944 3.313399 32.138585  
2002-02-21 08:59:01 51°15.67 2°54.61 7.239733 3.313899 32.143971  
2002-02-21 08:59:06 51°15.681 2°54.605 7.199777 3.3143 32.147497  
2002-02-21 08:59:11 51°15.692 2°54.6 7.240712 3.314701 32.151805  
2002-02-21 08:59:16 51°15.703 2°54.594 7.241152 3.315702 32.161794  
2002-02-21 08:59:21 51°15.714 2°54.589 7.241152 3.315702 32.161794  
2002-02-21 08:59:26 51°15.725 2°54.582 7.201491 3.315101 32.156114  
2002-02-21 08:59:31 51°15.735 2°54.577 7.201736 3.315402 32.160128  
2002-02-21 08:59:36 51°15.746 2°54.571 7.24218 3.311095 32.111469  
2002-02-21 08:59:41 51°15.757 2°54.566 7.201197 3.314601 32.150728  
2002-02-21 08:59:47 51°15.77 2°54.559 7.239243 3.317104 32.176091  
2002-02-21 08:59:51 51°15.778 2°54.555 7.198552 3.317104 32.175308  
2002-02-21 08:59:56 51°15.789 2°54.551 7.198552 3.317104 32.175308  
2002-02-21 09:00:01 51°15.8 2°54.546 7.207173 3.315302 32.155137  
2002-02-21 09:00:06 51°15.81 2°54.543 7.257255 3.318006 32.183435  
2002-02-21 09:00:11 51°15.822 2°54.538 7.225095 3.318507 32.188821  
2002-02-21 09:00:16 51°15.832 2°54.534 7.229795 3.319408 32.198516  
2002-02-21 09:00:21 51°15.844 2°54.529 7.229795 3.319408 32.198516  
2002-02-21 09:00:26 51°15.855 2°54.525 7.234495 3.319508 32.200377  
2002-02-21 09:00:31 51°15.866 2°54.52 7.239831 3.32071 32.213305  
2002-02-21 09:00:36 51°15.877 2°54.515 7.243747 3.322713 32.230929  
2002-02-21 09:00:40 51°15.886 2°54.512 7.327294 3.323114 32.228963  
2002-02-21 09:00:46 51°15.9 2°54.505 7.248984 3.326319 32.257938  
2002-02-21 09:00:51 51°15.912 2°54.5 7.248984 3.326319 32.257938  
2002-02-21 09:00:56 51°15.924 2°54.495 7.289594 3.323114 32.217986  
2002-02-21 09:01:01 51°15.936 2°54.489 7.249278 3.329825 32.284641  
2002-02-21 09:01:06 51°15.947 2°54.483 7.248005 3.330926 32.293346  
2002-02-21 09:01:11 51°15.959 2°54.478 7.246928 3.330425 32.284036  
2002-02-21 09:01:16 51°15.97 2°54.474 7.285925 3.331728 32.294892  
2002-02-21 09:01:21 51°15.981 2°54.469 7.285925 3.331728 32.294892  
2002-02-21 09:01:26 51°15.993 2°54.463 7.238215 3.334232 32.319452  
2002-02-21 09:01:31 51°16.004 2°54.457 7.23288 3.334632 32.322187  
2002-02-21 09:01:35 51°16.013 2°54.452 7.229942 3.334432 32.320034  
2002-02-21 09:01:41 51°16.027 2°54.444 7.226907 3.335433 32.330015  
2002-02-21 09:01:46 51°16.039 2°54.437 7.224557 3.334933 32.325417  
2002-02-21 09:01:51 51°16.051 2°54.431 7.224557 3.334933 32.325417  
2002-02-21 09:01:56 51°16.062 2°54.424 7.263029 3.332328 32.298996  
2002-02-21 09:02:01 51°16.074 2°54.417 7.219807 3.327921 32.256336  
2002-02-21 09:02:06 51°16.086 2°54.41 7.21682 3.321411 32.189503  
2002-02-21 09:02:11 51°16.097 2°54.403 7.214568 3.316203 32.13745  
2002-02-21 09:02:16 51°16.108 2°54.396 7.252801 3.311395 32.087361  
2002-02-21 09:02:21 51°16.119 2°54.388 7.252801 3.311395 32.087361  
2002-02-21 09:02:26 51°16.131 2°54.382 7.21256 3.306087 32.033458  
2002-02-21 09:02:31 51°16.143 2°54.375 7.332427 3.300778 31.979558  
2002-02-21 09:02:36 51°16.154 2°54.368 7.212413 3.29527 31.922735  
2002-02-21 09:02:41 51°16.166 2°54.361 7.212756 3.286957 31.835041  
2002-02-21 09:02:46 51°16.177 2°54.355 7.212609 3.284754 31.812938  
2002-02-21 09:02:50 51°16.186 2°54.35 7.212609 3.284754 31.812938  
2002-02-21 09:02:56 51°16.2 2°54.342 7.253927 3.278844 31.752612  
2002-02-21 09:03:01 51°16.211 2°54.335 7.254661 3.277542 31.740185  
2002-02-21 09:03:06 51°16.221 2°54.328 7.254661 3.273036 31.691053  
2002-02-21 09:03:11 51°16.232 2°54.321 7.216086 3.26963 31.655292  
2002-02-21 09:03:16 51°16.242 2°54.314 7.257402 3.271032 31.669564  
2002-02-21 09:03:21 51°16.253 2°54.308 7.217506 3.271133 31.669867  
2002-02-21 09:03:26 51°16.264 2°54.302 7.217506 3.271133 31.669867  
2002-02-21 09:03:31 51°16.273 2°54.297 7.219024 3.270131 31.659894  
2002-02-21 09:03:36 51°16.281 2°54.292 7.22015 3.269029 31.646536  
2002-02-21 09:03:41 51°16.288 2°54.288 7.220933 3.267527 31.631192  
2002-02-21 09:03:46 51°16.292 2°54.284 7.221815 3.264523 31.598199  
2002-02-21 09:03:51 51°16.296 2°54.281 7.221815 3.264523 31.598199  
2002-02-21 09:03:56 51°16.298 2°54.278 7.302359 3.265123 31.603874  
2002-02-21 09:04:01 51°16.3 2°54.275 7.262784 3.263621 31.587764  
2002-02-21 09:04:06 51°16.302 2°54.274 7.222402 3.26923 31.647915  
2002-02-21 09:04:11 51°16.304 2°54.271 7.223137 3.270632 31.661414  
2002-02-21 09:04:15 51°16.305 2°54.27 7.225046 3.271333 31.667393  
2002-02-21 09:04:21 51°16.307 2°54.266 7.225046 3.271333 31.667393  
2002-02-21 09:04:26 51°16.308 2°54.267 7.225046 3.265624 31.606169  
2002-02-21 09:04:31 51°16.309 2°54.262 7.265525 3.265825 31.609086  
2002-02-21 09:04:36 51°16.309 2°54.261 7.266258 3.271133 31.664475  
2002-02-21 09:04:41 51°16.31 2°54.259 7.225732 3.26953 31.646518  
2002-02-21 09:04:46 51°16.311 2°54.258 7.225536 3.272535 31.677973  
2002-02-21 09:04:51 51°16.311 2°54.256 7.225536 3.272535 31.677973  
2002-02-21 09:04:56 51°16.311 2°54.254 7.265525 3.267427 31.622424  
2002-02-21 09:05:00 51°16.312 2°54.251 7.225046 3.27624 31.716952  
2002-02-21 09:05:06 51°16.312 2°54.252 7.225585 3.276641 31.719707  
2002-02-21 09:05:11 51°16.312 2°54.247 7.265329 3.272134 31.671365  
2002-02-21 09:05:16 51°16.312 2°54.248 7.265916 3.269931 31.648505  
2002-02-21 09:05:20 51°16.312 2°54.243 7.265916 3.269931 31.648505  
2002-02-21 09:05:26 51°16.312 2°54.244 7.226417 3.270532 31.654949  
2002-02-21 09:05:31 51°16.312 2°54.24 7.226221 3.27604 31.713261  
2002-02-21 09:05:36 51°16.311 2°54.239 7.266748 3.27614 31.715106  
2002-02-21 09:05:41 51°16.311 2°54.236 7.267139 3.274037 31.691775  
2002-02-21 09:05:46 51°16.311 2°54.235 7.226711 3.270031 31.648809  
2002-02-21 09:05:51 51°16.311 2°54.233 7.226711 3.270031 31.648809  
2002-02-21 09:05:56 51°16.31 2°54.232 7.267775 3.276841 31.721084  
2002-02-21 09:06:01 51°16.31 2°54.229 7.227837 3.275539 31.707118  
2002-02-21 09:06:06 51°16.309 2°54.228 7.268901 3.280046 31.754694  
2002-02-21 09:06:11 51°16.308 2°54.226 7.22911 3.279646 31.751168  
2002-02-21 09:06:16 51°16.308 2°54.224 7.22862 3.273937 31.690701  
2002-02-21 09:06:21 51°16.306 2°54.223 7.22862 3.273937 31.690701  
2002-02-21 09:06:26 51°16.306 2°54.221 7.269488 3.281448 31.768965  
2002-02-21 09:06:31 51°16.305 2°54.219 7.229599 3.281048 31.765439  
2002-02-21 09:06:36 51°16.304 2°54.216 7.229795 3.280447 31.759764  
2002-02-21 09:06:41 51°16.303 2°54.214 7.231019 3.27634 31.71417  
2002-02-21 09:06:46 51°16.302 2°54.213 7.231019 3.278644 31.738879  
2002-02-21 09:06:51 51°16.301 2°54.21 7.231019 3.278644 31.738879  
2002-02-21 09:06:56 51°16.299 2°54.209 7.231215 3.282049 31.775412  
2002-02-21 09:07:01 51°16.298 2°54.207 7.231998 3.284052 31.797678  
2002-02-21 09:07:06 51°16.297 2°54.206 7.232243 3.284152 31.797206  
2002-02-21 09:07:11 51°16.295 2°54.205 7.231754 3.281148 31.764968  
2002-02-21 09:07:16 51°16.294 2°54.202 7.231998 3.286756 31.824374  
2002-02-21 09:07:21 51°16.292 2°54.202 7.234005 3.286356 31.819302  
2002-02-21 09:07:26 51°16.291 2°54.197 7.234005 3.286356 31.819302  
2002-02-21 09:07:31 51°16.289 2°54.197 7.235719 3.283151 31.784913  
2002-02-21 09:07:36 51°16.288 2°54.195 7.23846 3.292365 31.883794  
2002-02-21 09:07:41 51°16.287 2°54.192 7.238167 3.293667 31.896994  
2002-02-21 09:07:46 51°16.285 2°54.192 7.236159 3.294068 31.90207  
2002-02-21 09:07:51 51°16.284 2°54.189 7.236159 3.294068 31.90207  
2002-02-21 09:07:56 51°16.282 2°54.189 7.235523 3.293467 31.895619  
2002-02-21 09:08:01 51°16.281 2°54.186 7.235768 3.297874 31.940597  
2002-02-21 09:08:06 51°16.28 2°54.185 7.235915 3.302982 31.996219  
2002-02-21 09:08:11 51°16.279 2°54.182 7.234642 3.304785 32.011686  
2002-02-21 09:08:16 51°16.278 2°54.181 7.233467 3.302581 31.991139  
2002-02-21 09:08:21 51°16.277 2°54.178 7.233467 3.302581 31.991139  
2002-02-21 09:08:26 51°16.276 2°54.178 7.232928 3.304184 32.00679  
2002-02-21 09:08:31 51°16.275 2°54.176 7.232537 3.304684 32.013725  
2002-02-21 09:08:36 51°16.275 2°54.173 7.23239 3.305586 32.023405  
2002-02-21 09:08:40 51°16.274 2°54.173 7.231851 3.305686 32.02526  
2002-02-21 09:08:46 51°16.273 2°54.17 7.231998 3.303983 32.006974  
2002-02-21 09:08:51 51°16.272 2°54.17 7.231998 3.303983 32.006974  
2002-02-21 09:08:56 51°16.272 2°54.167 7.271738 3.301179 31.97686  
2002-02-21 09:09:00 51°16.271 2°54.169 7.270809 3.297573 31.939702  
2002-02-21 09:09:06 51°16.27 2°54.166 7.230089 3.297273 31.936476  
2002-02-21 09:09:11 51°16.27 2°54.164 7.230872 3.298074 31.945855  
2002-02-21 09:09:16 51°16.269 2°54.163 7.230774 3.296772 31.932653  
2002-02-21 09:09:21 51°16.268 2°54.161 7.230774 3.296772 31.932653  
2002-02-21 09:09:26 51°16.268 2°54.16 7.311014 3.29557 31.91975  
2002-02-21 09:09:31 51°16.267 2°54.158 7.23053 3.293868 31.900696  
2002-02-21 09:09:36 51°16.267 2°54.156 7.230725 3.293467 31.897947  
2002-02-21 09:09:41 51°16.266 2°54.156 7.230432 3.292566 31.88827  
2002-02-21 09:09:46 51°16.266 2°54.154 7.230628 3.292465 31.887971  
2002-02-21 09:09:51 51°16.266 2°54.152 7.230628 3.292465 31.887971  
2002-02-21 09:09:56 51°16.265 2°54.151 7.230774 3.292866 31.89072  
2002-02-21 09:10:00 51°16.265 2°54.149 7.231215 3.292065 31.88367  
2002-02-21 09:10:06 51°16.265 2°54.147 7.232537 3.292966 31.893347  
2002-02-21 09:10:11 51°16.266 2°54.146 7.234397 3.292065 31.882119  
2002-02-21 09:10:16 51°16.265 2°54.143 7.274674 3.292566 31.88827  
2002-02-21 09:10:21 51°16.265 2°54.142 7.274674 3.292566 31.88827  
2002-02-21 09:10:26 51°16.265 2°54.138 7.235082 3.292766 31.891196  
2002-02-21 09:10:30 51°16.265 2°54.138 7.233908 3.287758 31.835897  
2002-02-21 09:10:36 51°16.265 2°54.135 7.273695 3.292866 31.889169  
2002-02-21 09:10:41 51°16.265 2°54.133 7.233369 3.293066 31.891319  
2002-02-21 09:10:46 51°16.265 2°54.131 7.233369 3.292265 31.880393  
2002-02-21 09:10:51 51°16.265 2°54.129 7.233369 3.292265 31.880393  
2002-02-21 09:10:56 51°16.265 2°54.126 7.23332 3.293467 31.894068  
2002-02-21 09:11:01 51°16.265 2°54.125 7.273353 3.293467 31.893292  
2002-02-21 09:11:06 51°16.265 2°54.122 7.233957 3.293066 31.888992  
2002-02-21 09:11:11 51°16.266 2°54.121 7.274478 3.294268 31.901893  
2002-02-21 09:11:16 51°16.266 2°54.117 7.274674 3.294569 31.905894  
2002-02-21 09:11:21 51°16.267 2°54.116 7.274674 3.294569 31.905894  
2002-02-21 09:11:26 51°16.267 2°54.114 7.235621 3.294168 31.902369  
2002-02-21 09:11:31 51°16.266 2°54.111 7.27805 3.296271 31.924171  
2002-02-21 09:11:36 51°16.267 2°54.11 7.280593 3.29577 31.918795  
2002-02-21 09:11:41 51°16.267 2°54.107 7.242866 3.299877 31.962103  
2002-02-21 09:11:46 51°16.267 2°54.107 7.245851 3.302181 31.987615  
2002-02-21 09:11:51 51°16.268 2°54.104 7.245851 3.302181 31.987615  
2002-02-21 09:11:56 51°16.268 2°54.103 7.247613 3.302781 31.99329  
2002-02-21 09:12:01 51°16.268 2°54.101 7.247369 3.305987 32.027708  
2002-02-21 09:12:06 51°16.268 2°54.1 7.249131 3.307088 32.036424  
2002-02-21 09:12:11 51°16.268 2°54.099 7.251333 3.302581 31.988027  
2002-02-21 09:12:16 51°16.268 2°54.096 7.292577 3.311195 32.076627  
2002-02-21 09:12:21 51°16.269 2°54.095 7.292577 3.311195 32.076627  
2002-02-21 09:12:26 51°16.269 2°54.093 7.25427 3.313498 32.100588  
2002-02-21 09:12:31 51°16.269 2°54.092 7.255053 3.3148 32.112232  
2002-02-21 09:12:36 51°16.27 2°54.09 7.254563 3.313999 32.103626  
2002-02-21 09:12:41 51°16.27 2°54.089 7.254367 3.3145 32.108224  
2002-02-21 09:12:46 51°16.27 2°54.087 7.333404 3.315301 32.114487  
2002-02-21 09:12:51 51°16.27 2°54.087 7.333404 3.315301 32.114487  
2002-02-21 09:12:56 51°16.27 2°54.083 7.253584 3.315401 32.114002  
2002-02-21 09:13:01 51°16.27 2°54.084 7.252508 3.312897 32.086333  
2002-02-21 09:13:06 51°16.27 2°54.08 7.292431 3.317505 32.13581  
2002-02-21 09:13:11 51°16.271 2°54.08 7.253144 3.320209 32.163292  
2002-02-21 09:13:16 51°16.271 2°54.078 7.25192 3.320109 32.162216  
2002-02-21 09:13:21 51°16.271 2°54.076 7.25192 3.320109 32.162216  
2002-02-21 09:13:26 51°16.271 2°54.076 7.293409 3.32071 32.169453  
2002-02-21 09:13:31 51°16.271 2°54.074 7.293605 3.319408 32.155467  
2002-02-21 09:13:36 51°16.272 2°54.074 7.255004 3.321611 32.179918  
2002-02-21 09:13:41 51°16.272 2°54.072 7.254367 3.321511 32.179624  
2002-02-21 09:13:46 51°16.272 2°54.071 7.254661 3.321411 32.178548  
2002-02-21 09:13:51 51°16.272 2°54.07 7.254661 3.321411 32.178548  
2002-02-21 09:13:56 51°16.272 2°54.069 7.253633 3.321912 32.183928  
2002-02-21 09:14:01 51°16.272 2°54.068 7.252116 3.322012 32.185004  
2002-02-21 09:14:06 51°16.272 2°54.066 7.291746 3.322513 32.190384  
2002-02-21 09:14:11 51°16.273 2°54.065 7.250991 3.322813 32.192829  
2002-02-21 09:14:16 51°16.273 2°54.066 7.251039 3.317404 32.134734  
2002-02-21 09:14:21 51°16.273 2°54.062 7.250697 3.322012 32.184222  
2002-02-21 09:14:26 51°16.273 2°54.063 7.250697 3.322012 32.184222  
2002-02-21 09:14:31 51°16.273 2°54.06 7.290132 3.322713 32.191753  
2002-02-21 09:14:36 51°16.272 2°54.06 7.249229 3.315301 32.113707  
2002-02-21 09:14:41 51°16.272 2°54.058 7.28886 3.317505 32.137372  
2002-02-21 09:14:46 51°16.272 2°54.058 7.247467 3.318807 32.152139  
2002-02-21 09:14:51 51°16.272 2°54.055 7.247467 3.318807 32.152139  
2002-02-21 09:14:56 51°16.272 2°54.056 7.245215 3.316803 32.129842  
2002-02-21 09:15:01 51°16.272 2°54.052 7.244432 3.319107 32.155366  
2002-02-21 09:15:05 51°16.272 2°54.053 7.24453 3.311996 32.080553  
2002-02-21 09:15:11 51°16.272 2°54.05 7.242327 3.315902 32.123284  
2002-02-21 09:15:16 51°16.272 2°54.049 7.241985 3.313198 32.09424  
2002-02-21 09:15:21 51°16.271 2°54.047 7.241985 3.313198 32.09424  
2002-02-21 09:15:26 51°16.271 2°54.046 7.239929 3.309091 32.050922  
2002-02-21 09:15:31 51°16.271 2°54.045 7.279419 3.305786 32.01777  
2002-02-21 09:15:36 51°16.271 2°54.042 7.278832 3.301079 31.965679  
2002-02-21 09:15:41 51°16.27 2°54.042 7.278343 3.29537 31.905959  
2002-02-21 09:15:46 51°16.27 2°54.039 7.237824 3.293266 31.884939  
2002-02-21 09:15:51 51°16.269 2°54.039 7.237824 3.293266 31.884939  
2002-02-21 09:15:56 51°16.269 2°54.036 7.237628 3.293467 31.887864  
2002-02-21 09:16:01 51°16.269 2°54.035 7.278098 3.292766 31.881116  
2002-02-21 09:16:06 51°16.268 2°54.033 7.277707 3.291864 31.872218  
2002-02-21 09:16:11 51°16.268 2°54.031 7.278001 3.291664 31.871618  
2002-02-21 09:16:16 51°16.267 2°54.03 7.23846 3.290262 31.856571  
2002-02-21 09:16:21 51°16.267 2°54.027 7.23846 3.290262 31.856571  
2002-02-21 09:16:26 51°16.266 2°54.026 7.238607 3.28916 31.845523  
2002-02-21 09:16:31 51°16.266 2°54.023 7.238264 3.28896 31.843374  
2002-02-21 09:16:36 51°16.266 2°54.021 7.23895 3.288159 31.83555  
2002-02-21 09:16:41 51°16.265 2°54.019 7.238754 3.286957 31.821881  
2002-02-21 09:16:46 51°16.265 2°54.017 7.279028 3.287057 31.822181  
2002-02-21 09:16:51 51°16.264 2°54.015 7.279028 3.287057 31.822181  
2002-02-21 09:16:56 51°16.264 2°54.012 7.238901 3.286656 31.817883  
2002-02-21 09:17:01 51°16.263 2°54.011 7.239488 3.285655 31.807138  
2002-02-21 09:17:06 51°16.263 2°54.008 7.239929 3.286155 31.811737  
2002-02-21 09:17:11 51°16.263 2°54.007 7.240369 3.286256 31.812811  
2002-02-21 09:17:16 51°16.263 2°54.004 7.240418 3.285655 31.806364  
2002-02-21 09:17:21 51°16.262 2°54.003 7.281523 3.287758 31.829704  
2002-02-21 09:17:26 51°16.262 2°54 7.281523 3.287758 31.829704  
2002-02-21 09:17:31 51°16.262 2°53.999 7.282501 3.28896 31.841825  
2002-02-21 09:17:36 51°16.261 2°53.996 7.283039 3.290362 31.856871  
2002-02-21 09:17:41 51°16.261 2°53.994 7.32441 3.292165 31.876217  
2002-02-21 09:17:46 51°16.26 2°53.992 7.366193 3.292766 31.881891  
2002-02-21 09:17:51 51°16.26 2°53.99 7.245558 3.293166 31.885415  
2002-02-21 09:17:56 51°16.26 2°53.988 7.245558 3.293166 31.885415  
2002-02-21 09:18:01 51°16.26 2°53.985 7.247369 3.293767 31.89264  
2002-02-21 09:18:06 51°16.259 2°53.984 7.287491 3.294168 31.896164  
2002-02-21 09:18:11 51°16.259 2°53.982 7.247662 3.294468 31.898613  
2002-02-21 09:18:16 51°16.259 2°53.981 7.328223 3.295871 31.913661  
2002-02-21 09:18:21 51°16.259 2°53.978 7.28886 3.297373 31.927457  
2002-02-21 09:18:26 51°16.258 2°53.977 7.28886 3.297373 31.927457  
2002-02-21 09:18:31 51°16.258 2°53.975 7.248788 3.298475 31.940058  
2002-02-21 09:18:36 51°16.257 2°53.973 7.249278 3.299076 31.946508  
2002-02-21 09:18:41 51°16.257 2°53.971 7.249865 3.299977 31.95463  
2002-02-21 09:18:46 51°16.257 2°53.97 7.25011 3.299977 31.95463  
2002-02-21 09:18:51 51°16.256 2°53.967 7.25011 3.299977 31.95463  
2002-02-21 09:18:56 51°16.255 2°53.967 7.249865 3.300478 31.959229  
2002-02-21 09:19:01 51°16.255 2°53.964 7.250795 3.300778 31.962454  
2002-02-21 09:19:06 51°16.254 2°53.962 7.25192 3.302481 31.979953  
2002-02-21 09:19:11 51°16.253 2°53.96 7.331449 3.302881 31.983476  
2002-02-21 09:19:16 51°16.252 2°53.959 7.251186 3.303482 31.989927  
2002-02-21 09:19:21 51°16.251 2°53.956 7.251186 3.303482 31.989927  
2002-02-21 09:19:26 51°16.25 2°53.956 7.250501 3.303482 31.989149  
2002-02-21 09:19:31 51°16.249 2°53.954 7.252459 3.305586 32.01095  
2002-02-21 09:19:36 51°16.247 2°53.952 7.295218 3.303783 31.993152  
2002-02-21 09:19:41 51°16.246 2°53.952 7.296637 3.306988 32.025224  
2002-02-21 09:19:46 51°16.245 2°53.949 7.25794 3.307789 32.033048  
2002-02-21 09:19:51 51°16.243 2°53.948 7.25794 3.307789 32.033048  
2002-02-21 09:19:56 51°16.242 2°53.946 7.299571 3.303182 31.985146  
2002-02-21 09:20:01 51°16.241 2°53.943 7.261806 3.308791 32.04458  
2002-02-21 09:20:06 51°16.239 2°53.942 7.341126 3.309792 32.054554  
2002-02-21 09:20:11 51°16.238 2°53.939 7.257793 3.311094 32.066975  
2002-02-21 09:20:16 51°16.236 2°53.937 7.296637 3.313398 32.08937  
2002-02-21 09:20:21 51°16.235 2°53.934 7.296637 3.313398 32.08937  
2002-02-21 09:20:26 51°16.233 2°53.935 7.256912 3.312897 32.083993  
2002-02-21 09:20:31 51°16.232 2°53.93 7.297664 3.312497 32.078912  
2002-02-21 09:20:36 51°16.231 2°53.929 7.258576 3.313398 32.08859  
2002-02-21 09:20:41 51°16.229 2°53.926 7.25794 3.318907 32.147744  
2002-02-21 09:20:45 51°16.228 2°53.926 7.296735 3.319107 32.149896  
2002-02-21 09:20:51 51°16.226 2°53.921 7.255689 3.317404 32.133172  
2002-02-21 09:20:56 51°16.224 2°53.92 7.255689 3.317404 32.133172  
2002-02-21 09:21:01 51°16.223 2°53.917 7.295316 3.320409 32.16388  
2002-02-21 09:21:06 51°16.221 2°53.916 7.254123 3.321611 32.177571  
2002-02-21 09:21:11 51°16.219 2°53.912 7.252997 3.322412 32.185396  
2002-02-21 09:21:16 51°16.218 2°53.911 7.25241 3.321511 32.176496  
2002-02-21 09:21:21 51°16.216 2°53.909 7.251871 3.32111 32.172974  
2002-02-21 09:21:25 51°16.214 2°53.907 7.251871 3.32111 32.172974  
2002-02-21 09:21:31 51°16.212 2°53.905 7.251676 3.316703 32.125642  
2002-02-21 09:21:36 51°16.21 2°53.901 7.250403 3.319408 32.154686  
2002-02-21 09:21:41 51°16.209 2°53.901 7.250893 3.316803 32.127499  
2002-02-21 09:21:46 51°16.207 2°53.897 7.291257 3.312396 32.080955  
2002-02-21 09:21:51 51°16.205 2°53.896 7.290572 3.314199 32.100314  
2002-02-21 09:21:56 51°16.203 2°53.892 7.290572 3.314199 32.100314  
2002-02-21 09:22:01 51°16.201 2°53.891 7.250207 3.312396 32.080955  
2002-02-21 09:22:06 51°16.2 2°53.888 7.248299 3.302681 31.978216  
2002-02-21 09:22:11 51°16.198 2°53.885 7.247662 3.306287 32.016919  
2002-02-21 09:22:16 51°16.196 2°53.884 7.247662 3.306387 32.017995  
2002-02-21 09:22:21 51°16.194 2°53.88 7.326854 3.311695 32.075766  
2002-02-21 09:22:26 51°16.192 2°53.88 7.326854 3.311695 32.075766  
2002-02-21 09:22:31 51°16.191 2°53.875 7.287442 3.3149 32.108624  
2002-02-21 09:22:36 51°16.188 2°53.875 7.246439 3.309792 32.055333  
2002-02-21 09:22:41 51°16.187 2°53.871 7.285876 3.315501 32.117419  
2002-02-21 09:22:46 51°16.184 2°53.87 7.244921 3.311395 32.07332  
2002-02-21 09:22:51 51°16.183 2°53.866 7.244921 3.311395 32.07332  
2002-02-21 09:22:56 51°16.181 2°53.865 7.242474 3.316904 32.13248  
2002-02-21 09:23:01 51°16.179 2°53.862 7.322063 3.317605 32.14001  
2002-02-21 09:23:06 51°16.177 2°53.86 7.240908 3.311695 32.077326  
2002-02-21 09:23:11 51°16.176 2°53.857 7.320401 3.317805 32.142943  
2002-02-21 09:23:16 51°16.174 2°53.854 7.279517 3.317705 32.14343  
2002-02-21 09:23:21 51°16.172 2°53.852 7.279517 3.317705 32.14343  
2002-02-21 09:23:26 51°16.171 2°53.849 7.279126 3.313999 32.103626  
2002-02-21 09:23:31 51°16.17 2°53.847 7.278343 3.316904 32.135605  
2002-02-21 09:23:36 51°16.167 2°53.847 7.237971 3.3145 32.111346  
2002-02-21 09:23:41 51°16.168 2°53.844 7.237334 3.312998 32.094429  
2002-02-21 09:23:46 51°16.166 2°53.844 7.276337 3.313098 32.097066  
2002-02-21 09:23:51 51°16.167 2°53.843 7.276337 3.313098 32.097066  
2002-02-21 09:23:56 51°16.165 2°53.843 7.237187 3.311495 32.080634  
2002-02-21 09:24:01 51°16.165 2°53.843 7.315268 3.312497 32.090611  
2002-02-21 09:24:06 51°16.164 2°53.844 7.27531 3.310794 32.074664  
2002-02-21 09:24:11 51°16.163 2°53.845 7.276093 3.309993 32.065279  
2002-02-21 09:24:16 51°16.163 2°53.846 7.316832 3.309292 32.058529  
2002-02-21 09:24:20 51°16.161 2°53.847 7.316832 3.309292 32.058529  
2002-02-21 09:24:26 51°16.161 2°53.85 7.238264 3.302681 31.988325  
2002-02-21 09:24:31 51°16.159 2°53.852 7.23895 3.307289 32.039354  
2002-02-21 09:24:36 51°16.156 2°53.854 7.279028 3.303082 31.994182  
2002-02-21 09:24:41 51°16.155 2°53.857 7.278881 3.307389 32.041988  
2002-02-21 09:24:46 51°16.152 2°53.859 7.280349 3.306587 32.031046  
2002-02-21 09:24:51 51°16.151 2°53.863 7.279224 3.309592 32.063315  
2002-02-21 09:24:56 51°16.149 2°53.866 7.279224 3.309592 32.063315  
2002-02-21 09:25:01 51°16.147 2°53.87 7.279224 3.306788 32.031639  
2002-02-21 09:25:06 51°16.144 2°53.873 7.359793 3.310594 32.071733  
2002-02-21 09:25:11 51°16.143 2°53.877 7.281034 3.310994 32.076816  
2002-02-21 09:25:16 51°16.141 2°53.882 7.241348 3.311996 32.086013  
2002-02-21 09:25:21 51°16.139 2°53.886 7.241348 3.311996 32.086013  
2002-02-21 09:25:26 51°16.137 2°53.891 7.243159 3.311595 32.08249  
2002-02-21 09:25:31 51°16.136 2°53.897 7.283333 3.313899 32.108014  
2002-02-21 09:25:36 51°16.135 2°53.903 7.283235 3.312096 32.088649  
2002-02-21 09:25:41 51°16.133 2°53.909 7.243551 3.311796 32.085422  
2002-02-21 09:25:46 51°16.132 2°53.917 7.281865 3.309192 32.056674  
2002-02-21 09:25:51 51°16.132 2°53.924 7.281865 3.309192 32.056674  
2002-02-21 09:25:56 51°16.131 2°53.933 7.284164 3.306087 32.021775  
2002-02-21 09:26:01 51°16.132 2°53.941 7.242474 3.301379 31.970459  
2002-02-21 09:26:06 51°16.132 2°53.95 7.243796 3.296572 31.918858  
2002-02-21 09:26:10 51°16.132 2°53.957 7.284556 3.294368 31.894436  
2002-02-21 09:26:16 51°16.134 2°53.968 7.284164 3.291464 31.86327  
2002-02-21 09:26:21 51°16.132 2°53.978 7.284164 3.291464 31.86327  
2002-02-21 09:26:26 51°16.134 2°53.988 7.323579 3.287357 31.819989  
2002-02-21 09:26:31 51°16.133 2°53.998 7.282306 3.286356 31.808472  
2002-02-21 09:26:36 51°16.134 2°54.009 7.281914 3.281048 31.752311  
2002-02-21 09:26:40 51°16.132 2°54.018 7.280251 3.284353 31.786986  
2002-02-21 09:26:46 51°16.131 2°54.031 7.238313 3.284553 31.787589  
2002-02-21 09:26:51 51°16.129 2°54.042 7.238313 3.284553 31.787589  
2002-02-21 09:26:56 51°16.126 2°54.052 7.236845 3.285254 31.795108  
2002-02-21 09:27:01 51°16.124 2°54.063 7.315903 3.283451 31.777318  
2002-02-21 09:27:06 51°16.119 2°54.074 7.23474 3.285054 31.794506  
2002-02-21 09:27:11 51°16.116 2°54.084 7.274185 3.284954 31.793431  
2002-02-21 09:27:16 51°16.113 2°54.095 7.23332 3.284052 31.783763  
2002-02-21 09:27:21 51°16.11 2°54.106 7.23332 3.284052 31.783763  
2002-02-21 09:27:26 51°16.107 2°54.117 7.274038 3.285254 31.799747  
2002-02-21 09:27:31 51°16.105 2°54.128 7.273744 3.283752 31.782859  
2002-02-21 09:27:36 51°16.104 2°54.14 7.275799 3.281348 31.757849  
2002-02-21 09:27:41 51°16.101 2°54.152 7.234593 3.284553 31.793772  
2002-02-21 09:27:46 51°16.101 2°54.163 7.275016 3.283251 31.780578  
2002-02-21 09:27:51 51°16.099 2°54.174 7.275016 3.283251 31.780578  
2002-02-21 09:27:56 51°16.101 2°54.186 7.274185 3.281048 31.756943  
2002-02-21 09:28:01 51°16.098 2°54.198 7.232047 3.277442 31.719044  
2002-02-21 09:28:06 51°16.099 2°54.209 7.229795 3.272735 31.669337  
2002-02-21 09:28:11 51°16.098 2°54.221 7.227151 3.274738 31.690045  
2002-02-21 09:28:16 51°16.098 2°54.233 7.224654 3.273236 31.673937  
2002-02-21 09:28:21 51°16.098 2°54.244 7.22299 3.273236 31.673937  
2002-02-21 09:28:26 51°16.099 2°54.256 7.22299 3.273236 31.673937  
2002-02-21 09:28:31 51°16.097 2°54.269 7.302163 3.272434 31.664576  
2002-02-21 09:28:36 51°16.098 2°54.281 7.301527 3.271433 31.656917  
2002-02-21 09:28:41 51°16.097 2°54.293 7.221815 3.266225 31.602619  
2002-02-21 09:28:46 51°16.096 2°54.305 7.261757 3.268729 31.631001  
2002-02-21 09:28:51 51°16.096 2°54.318 7.221864 3.267928 31.623948  
2002-02-21 09:28:56 51°16.095 2°54.33 7.221864 3.267928 31.623948  
2002-02-21 09:29:01 51°16.094 2°54.343 7.222647 3.265224 31.597261  
2002-02-21 09:29:06 51°16.093 2°54.356 7.222892 3.267627 31.623034  
2002-02-21 09:29:11 51°16.092 2°54.368 7.26528 3.267327 31.620581  
2002-02-21 09:29:16 51°16.09 2°54.381 7.226417 3.266626 31.613833  
2002-02-21 09:29:21 51°16.089 2°54.394 7.26709 3.267727 31.625646  
2002-02-21 09:29:26 51°16.087 2°54.407 7.26709 3.267727 31.625646  
2002-02-21 09:29:31 51°16.086 2°54.42 7.228767 3.267427 31.623193  
2002-02-21 09:29:36 51°16.084 2°54.433 7.232145 3.268428 31.634703  
2002-02-21 09:29:41 51°16.083 2°54.446 7.276435 3.264823 31.595272  
2002-02-21 09:29:46 51°16.081 2°54.459 7.243453 3.271333 31.662772  
2002-02-21 09:29:51 51°16.082 2°54.471 7.243453 3.271333 31.662772  
2002-02-21 09:29:56 51°16.081 2°54.484 7.252263 3.272735 31.67781  
2002-02-21 09:30:01 51°16.082 2°54.496 7.303483 3.272935 31.679188  
2002-02-21 09:30:06 51°16.083 2°54.508 7.271738 3.27574 31.708495  
2002-02-21 09:30:11 51°16.083 2°54.52 7.276386 3.281348 31.766345  
2002-02-21 09:30:16 51°16.086 2°54.532 7.359744 3.286857 31.82158  
2002-02-21 09:30:21 51°16.085 2°54.544 7.359744 3.286857 31.82158  
2002-02-21 09:30:26 51°16.088 2°54.556 7.324116 3.291564 31.866669  
2002-02-21 09:30:31 51°16.087 2°54.569 7.285925 3.30178 31.970873  
2002-02-21 09:30:36 51°16.088 2°54.581 7.326414 3.312396 32.077057  
2002-02-21 09:30:41 51°16.088 2°54.593 7.287931 3.320209 32.153132  
2002-02-21 09:30:46 51°16.087 2°54.605 7.2893 3.325117 32.201141  
2002-02-21 09:30:51 51°16.086 2°54.618 7.2893 3.325117 32.201141  
2002-02-21 09:30:56 51°16.084 2°54.63 7.289936 3.328522 32.231448  
2002-02-21 09:31:01 51°16.082 2°54.641 7.331791 3.331427 32.259505  
2002-02-21 09:31:06 51°16.08 2°54.655 7.291795 3.334131 32.286194  
2002-02-21 09:31:11 51°16.078 2°54.667 7.33184 3.334532 32.288144  
2002-02-21 09:31:16 51°16.075 2°54.678 7.292969 3.336535 32.308087  
2002-02-21 09:31:21 51°16.074 2°54.692 7.292969 3.336535 32.308087  
2002-02-21 09:31:26 51°16.071 2°54.703 7.331791 3.336535 32.307302  
2002-02-21 09:31:31 51°16.071 2°54.716 7.376403 3.333029 32.268877  
2002-02-21 09:31:36 51°16.068 2°54.728 7.294191 3.332628 32.262226  
2002-02-21 09:31:41 51°16.069 2°54.741 7.33487 3.333029 32.26731  
2002-02-21 09:31:46 51°16.067 2°54.753 7.293653 3.333931 32.274637  
2002-02-21 09:31:51 51°16.067 2°54.765 7.332964 3.337937 32.317652  
2002-02-21 09:31:56 51°16.067 2°54.777 7.332964 3.337937 32.317652  
2002-02-21 09:32:01 51°16.067 2°54.789 7.334675 3.337737 32.314717  
2002-02-21 09:32:06 51°16.067 2°54.802 7.372251 3.337336 32.310415  
2002-02-21 09:32:11 51°16.068 2°54.814 7.290963 3.331527 32.248049  
2002-02-21 09:32:16 51°16.068 2°54.826 7.329543 3.336635 32.300535  
2002-02-21 09:32:21 51°16.069 2°54.839 7.290132 3.336034 32.294867  
2002-02-21 09:32:26 51°16.069 2°54.852 7.290132 3.336034 32.294867  
2002-02-21 09:32:31 51°16.068 2°54.864 7.409316 3.334231 32.277863  
2002-02-21 09:32:36 51°16.069 2°54.877 7.287784 3.33383 32.273562  
2002-02-21 09:32:41 51°16.068 2°54.889 7.28842 3.33363 32.269845  
2002-02-21 09:32:46 51°16.066 2°54.901 7.329396 3.334431 32.280797  
2002-02-21 09:32:51 51°16.066 2°54.915 7.329396 3.334431 32.280797  
2002-02-21 09:32:56 51°16.063 2°54.926 7.2893 3.328622 32.218437  
2002-02-21 09:33:01 51°16.063 2°54.938 7.290328 3.333029 32.26731  
2002-02-21 09:33:06 51°16.061 2°54.952 7.331107 3.331527 32.250398  
2002-02-21 09:33:11 51°16.06 2°54.964 7.29336 3.327721 32.209544  
2002-02-21 09:33:16 51°16.059 2°54.977 7.294142 3.331527 32.250398  
2002-02-21 09:33:21 51°16.058 2°54.99 7.336581 3.332929 32.263885  
2002-02-21 09:33:26 51°16.057 2°55.003 7.336581 3.332929 32.263885  
2002-02-21 09:33:31 51°16.056 2°55.016 7.337265 3.332929 32.263101  
2002-02-21 09:33:36 51°16.056 2°55.029 7.33839 3.329523 32.228112  
2002-02-21 09:33:41 51°16.056 2°55.041 7.298495 3.332428 32.256942  
2002-02-21 09:33:46 51°16.056 2°55.054 7.295561 3.329724 32.22948  
2002-02-21 09:33:51 51°16.058 2°55.066 7.295561 3.329724 32.22948  
2002-02-21 09:33:56 51°16.058 2°55.078 7.37059 3.332428 32.256942  
2002-02-21 09:34:01 51°16.061 2°55.089 7.285094 3.333029 32.261044  
2002-02-21 09:34:06 51°16.062 2°55.101 7.286855 3.331426 32.243843  
2002-02-21 09:34:11 51°16.065 2°55.112 7.403702 3.331026 32.237978  
2002-02-21 09:34:16 51°16.067 2°55.124 7.363018 3.331727 32.245503  
2002-02-21 09:34:21 51°16.071 2°55.134 7.363018 3.331727 32.245503  
2002-02-21 09:34:26 51°16.072 2°55.146 7.282795 3.325918 32.185506  
2002-02-21 09:34:31 51°16.075 2°55.157 7.282306 3.328522 32.215798  
2002-02-21 09:34:36 51°16.077 2°55.169 7.282941 3.321911 32.147202  
2002-02-21 09:34:41 51°16.08 2°55.181 7.281963 3.325918 32.190976  
2002-02-21 09:34:46 51°16.08 2°55.193 7.28255 3.324916 32.183352  
2002-02-21 09:34:51 51°16.082 2°55.204 7.28255 3.324916 32.183352  
2002-02-21 09:34:56 51°16.082 2°55.217 7.362822 3.319708 32.127459  
2002-02-21 09:35:01 51°16.084 2°55.228 7.283333 3.324315 32.176902  
2002-02-21 09:35:06 51°16.085 2°55.24 7.284751 3.324215 32.176609  
2002-02-21 09:35:11 51°16.087 2°55.251 7.284898 3.322713 32.159704  
2002-02-21 09:35:16 51°16.09 2°55.262 7.327245 3.324215 32.175828  
2002-02-21 09:35:21 51°16.092 2°55.274 7.327245 3.324215 32.175828  
2002-02-21 09:35:26 51°16.095 2°55.285 7.287246 3.324115 32.174753  
2002-02-21 09:35:31 51°16.098 2°55.295 7.326316 3.323614 32.170159  
2002-02-21 09:35:36 51°16.101 2°55.307 7.284018 3.323414 32.168009  
2002-02-21 09:35:41 51°16.104 2°55.317 7.284115 3.322913 32.162634  
2002-02-21 09:35:46 51°16.107 2°55.328 7.28436 3.322212 32.153549  
2002-02-21 09:35:51 51°16.11 2°55.339 7.323237 3.319708 32.126679  
2002-02-21 09:35:56 51°16.113 2°55.35 7.323237 3.319708 32.126679  
2002-02-21 09:36:00 51°16.116 2°55.359 7.283626 3.32121 32.14202  
2002-02-21 09:36:06 51°16.119 2°55.373 7.282354 3.320609 32.136352  
2002-02-21 09:36:11 51°16.123 2°55.383 7.28167 3.320008 32.129903  
2002-02-21 09:36:16 51°16.125 2°55.395 7.280936 3.317604 32.104112  
2002-02-21 09:36:21 51°16.129 2°55.405 7.280936 3.317604 32.104112  
2002-02-21 09:36:26 51°16.131 2°55.417 7.280153 3.319307 32.12394  
2002-02-21 09:36:31 51°16.137 2°55.427 7.279957 3.315701 32.085253  
2002-02-21 09:36:36 51°16.139 2°55.437 7.35823 3.318305 32.111634  
2002-02-21 09:36:41 51°16.143 2°55.448 7.276435 3.317604 32.104891  
2002-02-21 09:36:46 51°16.145 2°55.46 7.275408 3.315501 32.083883  
2002-02-21 09:36:51 51°16.148 2°55.47 7.275163 3.314199 32.069914  
2002-02-21 09:36:56 51°16.15 2°55.482 7.275163 3.314199 32.069914  
2002-02-21 09:37:01 51°16.153 2°55.493 7.27531 3.316202 32.090626  
2002-02-21 09:37:06 51°16.157 2°55.503 7.274967 3.306787 31.991968  
2002-02-21 09:37:11 51°16.16 2°55.514 7.314192 3.307088 31.995968  
2002-02-21 09:37:16 51°16.164 2°55.524 7.395157 3.310593 32.034347  
2002-02-21 09:37:21 51°16.166 2°55.535 7.395157 3.310593 32.034347  
2002-02-21 09:37:26 51°16.17 2°55.545 7.354174 3.30869 32.016266  
2002-02-21 09:37:31 51°16.174 2°55.554 7.314534 3.310593 32.035903  
2002-02-21 09:37:36 51°16.177 2°55.565 7.313361 3.312096 32.05202  
2002-02-21 09:37:41 51°16.182 2°55.574 7.271934 3.311094 32.040497  
2002-02-21 09:37:46 51°16.186 2°55.584 7.271885 3.310593 32.036681  
2002-02-21 09:37:51 51°16.189 2°55.594 7.271885 3.310593 32.036681  
2002-02-21 09:37:56 51°16.194 2°55.604 7.271151 3.310293 32.034235  
2002-02-21 09:38:01 51°16.196 2°55.615 7.269047 3.310193 32.033161  
2002-02-21 09:38:06 51°16.199 2°55.626 7.268901 3.309592 32.025936  
2002-02-21 09:38:11 51°16.201 2°55.637 7.268411 3.308891 32.01997  
2002-02-21 09:38:16 51°16.203 2°55.649 7.234495 3.305585 31.986069  
2002-02-21 09:38:21 51°16.204 2°55.66 7.234495 3.305585 31.986069  
2002-02-21 09:38:26 51°16.206 2°55.672 7.211091 3.302481 31.952766  
2002-02-21 09:38:31 51°16.205 2°55.684 7.194585 3.30198 31.94662  
2002-02-21 09:38:36 51°16.205 2°55.696 7.222059 3.306687 31.999442  
2002-02-21 09:38:41 51°16.206 2°55.708 7.172048 3.306186 31.996401  
2002-02-21 09:38:46 51°16.205 2°55.721 7.164746 3.299075 31.924  
2002-02-21 09:38:51 51°16.207 2°55.732 7.164746 3.299075 31.924  
2002-02-21 09:38:56 51°16.207 2°55.744 7.201883 3.281148 31.747982  
2002-02-21 09:39:01 51°16.209 2°55.756 7.160188 3.273536 31.680239  
2002-02-21 09:39:06 51°16.211 2°55.766 7.163031 3.257712 31.52671  
2002-02-21 09:39:11 51°16.213 2°55.777 7.162051 3.253706 31.496025  
2002-02-21 09:39:16 51°16.216 2°55.786 7.163178 3.246596 31.429731  
2002-02-21 09:39:21 51°16.218 2°55.794 7.203304 3.237182 31.337196  
2002-02-21 09:39:26 51°16.221 2°55.802 7.203304 3.237182 31.337196  
2002-02-21 09:39:31 51°16.223 2°55.811 7.164158 3.230072 31.267065  
2002-02-21 09:39:36 51°16.227 2°55.817 7.282208 3.227368 31.242646  
2002-02-21 09:39:41 51°16.229 2°55.824 7.159453 3.226767 31.236966  
2002-02-21 09:39:46 51°16.232 2°55.83 7.157296 3.22887 31.259512  
2002-02-21 09:39:51 51°16.234 2°55.837 7.156169 3.224063 31.20646  
2002-02-21 09:39:56 51°16.237 2°55.842 7.156169 3.224063 31.20646  
2002-02-21 09:40:01 51°16.24 2°55.847 7.155434 3.226767 31.236966  
2002-02-21 09:40:06 51°16.242 2°55.854 7.194585 3.223863 31.205073  
2002-02-21 09:40:11 51°16.246 2°55.858 7.193752 3.223963 31.207667  
2002-02-21 09:40:16 51°16.249 2°55.862 7.154552 3.221459 31.182351  
2002-02-21 09:40:21 51°16.251 2°55.867 7.192184 3.220558 31.171931  
2002-02-21 09:40:26 51°16.254 2°55.872 7.192184 3.220558 31.171931  
2002-02-21 09:40:31 51°16.256 2°55.876 7.230628 3.219657 31.166827  
2002-02-21 09:40:36 51°16.258 2°55.881 7.228473 3.215551 31.12282  
2002-02-21 09:40:41 51°16.26 2°55.885 7.227984 3.217053 31.141196  
2002-02-21 09:40:46 51°16.262 2°55.89 7.18758 3.210243 31.068974  
2002-02-21 09:40:51 51°16.265 2°55.894 7.18758 3.210243 31.068974  
2002-02-21 09:40:56 51°16.266 2°55.899 7.146954 3.213748 31.107293  
2002-02-21 09:41:01 51°16.268 2°55.903 7.186649 3.214149 31.111586  
2002-02-21 09:41:06 51°16.27 2°55.908 7.145042 3.213448 31.105589  
2002-02-21 09:41:11 51°16.271 2°55.912 7.185424 3.211345 31.083808  
2002-02-21 09:41:16 51°16.273 2°55.916 7.226074 3.211145 31.082419  
2002-02-21 09:41:21 51°16.274 2°55.921 7.226074 3.211145 31.082419  
2002-02-21 09:41:26 51°16.277 2°55.924 7.145728 3.211345 31.086081  
2002-02-21 09:41:31 51°16.277 2°55.93 7.145238 3.20814 31.052495  
2002-02-21 09:41:36 51°16.28 2°55.932 7.144012 3.210344 31.077621  
2002-02-21 09:41:41 51°16.28 2°55.938 7.144159 3.211045 31.085892  
2002-02-21 09:41:46 51°16.282 2°55.941 7.142591 3.208141 31.054765  
2002-02-21 09:41:51 51°16.282 2°55.946 7.142591 3.208141 31.054765  
2002-02-21 09:41:56 51°16.284 2°55.948 7.143032 3.210244 31.077305  
2002-02-21 09:42:01 51°16.285 2°55.952 7.143277 3.209643 31.070107  
2002-02-21 09:42:06 51°16.285 2°55.955 7.183758 3.209843 31.071497  
2002-02-21 09:42:11 51°16.286 2°55.958 7.184297 3.209442 31.067961  
2002-02-21 09:42:16 51°16.287 2°55.96 7.143473 3.209843 31.073011  
2002-02-21 09:42:21 51°16.287 2°55.963 7.143473 3.209843 31.073011  
2002-02-21 09:42:26 51°16.288 2°55.964 7.22769 3.209743 31.072695  
2002-02-21 09:42:31 51°16.287 2°55.967 7.187776 3.209242 31.067329  
2002-02-21 09:42:36 51°16.289 2°55.967 7.149454 3.208541 31.059816  
2002-02-21 09:42:41 51°16.287 2°55.971 7.149405 3.206038 31.032985  
2002-02-21 09:42:46 51°16.289 2°55.971 7.148326 3.209042 31.065182  
2002-02-21 09:42:51 51°16.288 2°55.973 7.147003 3.208541 31.058301  
2002-02-21 09:42:56 51°16.289 2°55.974 7.147003 3.208541 31.058301  
2002-02-21 09:43:01 51°16.288 2°55.975 7.186502 3.209943 31.071055  
2002-02-21 09:43:06 51°16.289 2°55.976 7.144699 3.208841 31.060007  
2002-02-21 09:43:11 51°16.29 2°55.976 7.142983 3.206738 31.036714  
2002-02-21 09:43:16 51°16.289 2°55.977 7.144748 3.210444 31.077179  
2002-02-21 09:43:21 51°16.29 2°55.976 7.142493 3.209342 31.064616  
2002-02-21 09:43:26 51°16.289 2°55.977 7.142493 3.209342 31.064616  
2002-02-21 09:43:31 51°16.289 2°55.977 7.183268 3.209042 31.06291  
2002-02-21 09:43:36 51°16.29 2°55.975 7.182778 3.209042 31.062153  
2002-02-21 09:43:41 51°16.289 2°55.976 7.142885 3.207339 31.044666  
2002-02-21 09:43:46 51°16.288 2°55.977 7.22441 3.209943 31.074085  
2002-02-21 09:43:51 51°16.289 2°55.975 7.183758 3.209643 31.071622  
2002-02-21 09:43:56 51°16.288 2°55.976 7.183758 3.209643 31.071622  
2002-02-21 09:44:01 51°16.288 2°55.974 7.222206 3.209042 31.065182  
2002-02-21 09:44:06 51°16.288 2°55.974 7.142885 3.210244 31.07882  
2002-02-21 09:44:11 51°16.287 2°55.974 7.183513 3.210244 31.078062  
2002-02-21 09:44:16 51°16.287 2°55.973 7.183758 3.210444 31.080209  
2002-02-21 09:44:21 51°16.287 2°55.973 7.143865 3.210744 31.082672  
2002-02-21 09:44:26 51°16.287 2°55.972 7.143865 3.210744 31.082672  
2002-02-21 09:44:31 51°16.286 2°55.972 7.224312 3.210444 31.080209  
2002-02-21 09:44:36 51°16.286 2°55.973 7.184052 3.210644 31.083871  
2002-02-21 09:44:41 51°16.287 2°55.97 7.144012 3.211245 31.089554  
2002-02-21 09:44:46 51°16.286 2°55.973 7.145532 3.209242 31.068086  
2002-02-21 09:44:51 51°16.287 2°55.972 7.145532 3.209242 31.068086  
2002-02-21 09:44:56 51°16.287 2°55.974 7.145532 3.206839 31.042327  
2002-02-21 09:45:01 51°16.289 2°55.976 7.186796 3.20754 31.048326  
2002-02-21 09:45:06 51°16.29 2°55.977 7.188363 3.211145 31.087723  
2002-02-21 09:45:11 51°16.292 2°55.979 7.151513 3.211846 31.095995  
2002-02-21 09:45:16 51°16.294 2°55.982 7.150434 3.211846 31.095237  
2002-02-21 09:45:21 51°16.296 2°55.985 7.150434 3.211846 31.095237  
2002-02-21 09:45:26 51°16.297 2°55.989 7.150238 3.212046 31.097384  
2002-02-21 09:45:31 51°16.3 2°55.992 7.269977 3.210544 31.079767  
2002-02-21 09:45:36 51°16.301 2°55.998 7.189637 3.211545 31.091259  
2002-02-21 09:45:41 51°16.303 2°56.002 7.190372 3.212246 31.098015  
2002-02-21 09:45:46 51°16.303 2°56.008 7.148915 3.212447 31.098646  
2002-02-21 09:45:51 51°16.306 2°56.014 7.148915 3.212447 31.098646  
2002-02-21 09:45:56 51°16.305 2°56.021 7.189637 3.212046 31.094352  
2002-02-21 09:46:01 51°16.307 2°56.027 7.229012 3.212246 31.095741  
2002-02-21 09:46:06 51°16.306 2°56.034 7.149699 3.211045 31.082103  
2002-02-21 09:46:11 51°16.308 2°56.041 7.149258 3.212447 31.097888  
2002-02-21 09:46:16 51°16.308 2°56.048 7.149209 3.210043 31.072128  
2002-02-21 09:46:21 51°16.307 2°56.056 7.148816 3.211746 31.090374  
2002-02-21 09:46:26 51°16.306 2°56.064 7.148816 3.211746 31.090374  
2002-02-21 09:46:31 51°16.305 2°56.071 7.149552 3.212146 31.094668  
2002-02-21 09:46:36 51°16.302 2°56.079 7.150336 3.212547 31.097445  
2002-02-21 09:46:41 51°16.301 2°56.086 7.150924 3.210444 31.075664  
2002-02-21 09:46:46 51°16.297 2°56.094 7.150973 3.207139 31.041007  
2002-02-21 09:46:51 51°16.294 2°56.101 7.150728 3.20804 31.049908  
2002-02-21 09:46:56 51°16.291 2°56.109 7.150728 3.20804 31.049908  
2002-02-21 09:47:01 51°16.287 2°56.116 7.148816 3.210844 31.080714  
2002-02-21 09:47:06 51°16.284 2°56.124 7.148081 3.209442 31.065689  
2002-02-21 09:47:11 51°16.279 2°56.129 7.186649 3.211746 31.090374  
2002-02-21 09:47:16 51°16.276 2°56.136 7.146316 3.207139 31.041763  
2002-02-21 09:47:21 51°16.271 2°56.142 7.14666 3.211445 31.086397  
2002-02-21 09:47:26 51°16.267 2°56.147 7.14666 3.211445 31.086397  
2002-02-21 09:47:31 51°16.262 2°56.151 7.146022 3.210344 31.076106  
2002-02-21 09:47:36 51°16.257 2°56.157 7.14764 3.20814 31.053251  
2002-02-21 09:47:41 51°16.252 2°56.16 7.22911 3.204235 31.012157  
2002-02-21 09:47:46 51°16.246 2°56.164 7.149846 3.208541 31.059058  
2002-02-21 09:47:51 51°16.24 2°56.167 7.151464 3.208241 31.056596  
2002-02-21 09:47:56 51°16.236 2°56.169 7.151464 3.208241 31.056596  
2002-02-21 09:48:01 51°16.229 2°56.171 7.152787 3.20804 31.054449  
2002-02-21 09:48:06 51°16.223 2°56.174 7.194585 3.208641 31.060132  
2002-02-21 09:48:11 51°16.218 2°56.174 7.155875 3.209042 31.065182  
2002-02-21 09:48:16 51°16.211 2°56.175 7.157394 3.209643 31.070865  
2002-02-21 09:48:21 51°16.206 2°56.175 7.157394 3.209643 31.070865  
2002-02-21 09:48:26 51°16.2 2°56.175 7.157983 3.209943 31.071055  
2002-02-21 09:48:31 51°16.193 2°56.175 7.157394 3.210844 31.081472  
2002-02-21 09:48:36 51°16.187 2°56.174 7.157787 3.211645 31.088543  
2002-02-21 09:48:41 51°16.181 2°56.174 7.158277 3.212547 31.097445  
2002-02-21 09:48:46 51°16.174 2°56.172 7.1596 3.213648 31.107736  
2002-02-21 09:48:51 51°16.168 2°56.17 7.1596 3.213648 31.107736  
2002-02-21 09:48:56 51°16.162 2°56.168 7.159943 3.214449 31.114806  
2002-02-21 09:49:01 51°16.155 2°56.166 7.200953 3.21465 31.117711  
2002-02-21 09:49:06 51°16.149 2°56.162 7.161266 3.215451 31.124781  
2002-02-21 09:49:11 51°16.143 2°56.16 7.16156 3.215851 31.128315  
2002-02-21 09:49:16 51°16.137 2°56.154 7.161266 3.215251 31.121875  
2002-02-21 09:49:21 51°16.131 2°56.152 7.161266 3.215251 31.121875  
2002-02-21 09:49:26 51°16.125 2°56.146 7.202226 3.217153 31.142269  
2002-02-21 09:49:31 51°16.119 2°56.141 7.201197 3.218655 31.156852  
2002-02-21 09:49:36 51°16.113 2°56.137 7.202275 3.218856 31.158999  
2002-02-21 09:49:41 51°16.109 2°56.13 7.163031 3.218255 31.15104  
2002-02-21 09:49:46 51°16.102 2°56.125 7.162884 3.216853 31.136014  
2002-02-21 09:49:51 51°16.098 2°56.117 7.283137 3.217654 31.1446  
2002-02-21 09:49:56 51°16.092 2°56.113 7.283137 3.217654 31.1446  
2002-02-21 09:50:01 51°16.088 2°56.103 7.203597 3.215851 31.124523  
2002-02-21 09:50:06 51°16.081 2°56.1 7.162051 3.216352 31.128372  
2002-02-21 09:50:11 51°16.078 2°56.09 7.24404 3.218655 31.154575  
2002-02-21 09:50:16 51°16.072 2°56.085 7.203842 3.217053 31.135126  
2002-02-21 09:50:21 51°16.068 2°56.076 7.162688 3.220358 31.169784  
2002-02-21 09:50:26 51°16.064 2°56.069 7.162688 3.220358 31.169784  
2002-02-21 09:50:31 51°16.06 2°56.061 7.163227 3.221159 31.178371  
2002-02-21 09:50:36 51°16.055 2°56.055 7.203695 3.220158 31.167638  
2002-02-21 09:50:41 51°16.052 2°56.046 7.204724 3.22166 31.182978  
2002-02-21 09:50:46 51°16.048 2°56.039 7.204283 3.218756 31.151853  
2002-02-21 09:50:51 51°16.044 2°56.03 7.162982 3.222361 31.190492  
2002-02-21 09:50:56 51°16.042 2°56.021 7.162982 3.222361 31.190492  
2002-02-21 09:51:01 51°16.038 2°56.014 7.242964 3.220658 31.173764  
2002-02-21 09:51:06 51°16.036 2°56.005 7.203206 3.223262 31.200913  
2002-02-21 09:51:11 51°16.033 2°55.996 7.242474 3.221159 31.17989  
2002-02-21 09:51:16 51°16.03 2°55.988 7.201687 3.224464 31.214556  
2002-02-21 09:51:21 51°16.028 2°55.979 7.201687 3.224464 31.214556  
2002-02-21 09:51:26 51°16.024 2°55.971 7.162394 3.224664 31.216703  
2002-02-21 09:51:31 51°16.024 2°55.962 7.162737 3.224263 31.212408  
2002-02-21 09:51:36 51°16.02 2°55.954 7.200855 3.224864 31.21885  
2002-02-21 09:51:41 51°16.018 2°55.945 7.162492 3.224764 31.218537  
2002-02-21 09:51:46 51°16.016 2°55.937 7.162051 3.222861 31.198899  
2002-02-21 09:51:51 51°16.015 2°55.929 7.161266 3.224864 31.220371  
2002-02-21 09:51:56 51°16.011 2°55.921 7.161266 3.224864 31.220371  
2002-02-21 09:52:01 51°16.011 2°55.912 7.200659 3.222761 31.197066  
2002-02-21 09:52:06 51°16.008 2°55.905 7.201295 3.224864 31.21961  
2002-02-21 09:52:11 51°16.007 2°55.897 7.162982 3.223062 31.201047  
2002-02-21 09:52:16 51°16.006 2°55.889 7.162541 3.224364 31.214242  
2002-02-21 09:52:21 51°16.002 2°55.881 7.162541 3.224364 31.214242  
2002-02-21 09:52:26 51°16.002 2°55.874 7.242621 3.222361 31.192012  
2002-02-21 09:52:31 51°15.999 2°55.867 7.201834 3.224163 31.212095  
2002-02-21 09:52:36 51°15.997 2°55.859 7.162149 3.223663 31.207488  
2002-02-21 09:52:41 51°15.996 2°55.853 7.242474 3.219757 31.165622  
2002-02-21 09:52:46 51°15.995 2°55.846 7.162541 3.223062 31.200286  
2002-02-21 09:52:51 51°15.993 2°55.839 7.162541 3.223062 31.200286  
2002-02-21 09:52:56 51°15.991 2°55.833 7.202716 3.219957 31.16625  
2002-02-21 09:53:01 51°15.99 2°55.827 7.164844 3.222461 31.193085  
2002-02-21 09:53:06 51°15.99 2°55.821 7.204871 3.223462 31.20382  
2002-02-21 09:53:11 51°15.987 2°55.815 7.246243 3.223562 31.204894  
2002-02-21 09:53:16 51°15.988 2°55.808 7.167343 3.223362 31.201986  
2002-02-21 09:53:21 51°15.987 2°55.802 7.208544 3.223562 31.203373  
2002-02-21 09:53:26 51°15.987 2°55.796 7.208544 3.223562 31.203373  
2002-02-21 09:53:31 51°15.985 2°55.79 7.208103 3.224063 31.20798  
2002-02-21 09:53:36 51°15.986 2°55.785 7.209621 3.222761 31.194026  
2002-02-21 09:53:41 51°15.984 2°55.779 7.210454 3.222261 31.188659  
2002-02-21 09:53:46 51°15.984 2°55.774 7.170431 3.225265 31.220102  
2002-02-21 09:53:51 51°15.983 2°55.768 7.170284 3.225165 31.219028  
2002-02-21 09:53:56 51°15.982 2°55.764 7.170284 3.225165 31.219028  
2002-02-21 09:54:01 51°15.982 2°55.758 7.171264 3.226266 31.228554  
2002-02-21 09:54:06 51°15.982 2°55.755 7.29155 3.225665 31.221353  
2002-02-21 09:54:11 51°15.98 2°55.748 7.170627 3.225866 31.222739  
2002-02-21 09:54:16 51°15.982 2°55.745 7.211335 3.227769 31.243896  
2002-02-21 09:54:21 51°15.98 2°55.738 7.210062 3.227668 31.242061  
2002-02-21 09:54:26 51°15.981 2°55.735 7.210062 3.227668 31.242061  
2002-02-21 09:54:31 51°15.98 2°55.728 7.170333 3.228369 31.248815  
2002-02-21 09:54:36 51°15.98 2°55.725 7.169353 3.22877 31.252348  
2002-02-21 09:54:41 51°15.979 2°55.718 7.168225 3.22857 31.250201  
2002-02-21 09:54:46 51°15.98 2°55.714 7.16852 3.229171 31.257403  
2002-02-21 09:54:51 51°15.979 2°55.709 7.16852 3.229171 31.257403  
2002-02-21 09:54:56 51°15.979 2°55.704 7.168323 3.22867 31.252035  
2002-02-21 09:55:01 51°15.978 2°55.699 7.167392 3.22897 31.255256  
2002-02-21 09:55:06 51°15.978 2°55.694 7.169451 3.229371 31.25955  
2002-02-21 09:55:11 51°15.978 2°55.691 7.16901 3.229771 31.264606  
2002-02-21 09:55:16 51°15.977 2°55.686 7.167049 3.229771 31.264606  
2002-02-21 09:55:21 51°15.977 2°55.681 7.167049 3.229771 31.264606  
2002-02-21 09:55:26 51°15.977 2°55.677 7.167343 3.229972 31.267515  
2002-02-21 09:55:31 51°15.976 2°55.672 7.166265 3.229872 31.266441  
2002-02-21 09:55:36 51°15.976 2°55.667 7.165383 3.229972 31.268276  
2002-02-21 09:55:41 51°15.975 2°55.663 7.165138 3.229471 31.262908  
2002-02-21 09:55:46 51°15.976 2°55.658 7.165089 3.229972 31.269038  
2002-02-21 09:55:51 51°15.975 2°55.652 7.165089 3.229972 31.269038  
2002-02-21 09:55:56 51°15.975 2°55.648 7.165236 3.229671 31.265817  
2002-02-21 09:56:01 51°15.975 2°55.643 7.166265 3.230372 31.272571  
2002-02-21 09:56:06 51°15.975 2°55.638 7.208838 3.230372 31.274095  
2002-02-21 09:56:11 51°15.975 2°55.633 7.170088 3.230673 31.278078  
2002-02-21 09:56:16 51°15.975 2°55.628 7.208838 3.230773 31.279914  
2002-02-21 09:56:21 51°15.975 2°55.623 7.208838 3.230773 31.279914  
2002-02-21 09:56:26 51°15.975 2°55.619 7.208936 3.230472 31.276693  
2002-02-21 09:56:31 51°15.975 2°55.613 7.168176 3.230172 31.274233  
2002-02-21 09:56:36 51°15.975 2°55.61 7.1695 3.229671 31.267341  
2002-02-21 09:56:41 51°15.974 2°55.604 7.16901 3.22907 31.260137  
2002-02-21 09:56:46 51°15.975 2°55.6 7.169157 3.22857 31.253246  
2002-02-21 09:56:51 51°15.974 2°55.595 7.170284 3.228169 31.24819  
2002-02-21 09:56:56 51°15.974 2°55.59 7.170284 3.228169 31.24819  
2002-02-21 09:57:01 51°15.974 2°55.585 7.170774 3.228069 31.247117  
2002-02-21 09:57:06 51°15.974 2°55.581 7.210846 3.227969 31.246804  
2002-02-21 09:57:11 51°15.975 2°55.576 7.210699 3.228169 31.248951  
2002-02-21 09:57:16 51°15.975 2°55.572 7.171754 3.227067 31.236381  
2002-02-21 09:57:21 51°15.974 2°55.566 7.211091 3.227468 31.240675  
2002-02-21 09:57:26 51°15.974 2°55.562 7.211091 3.227468 31.240675  
2002-02-21 09:57:31 51°15.974 2°55.557 7.211874 3.227368 31.238841  
2002-02-21 09:57:36 51°15.974 2°55.553 7.172489 3.227168 31.236694  
2002-02-21 09:57:41 51°15.974 2°55.547 7.212462 3.226967 31.233026  
2002-02-21 09:57:47 51°15.974 2°55.543 7.171215 3.227168 31.235172  
2002-02-21 09:57:51 51°15.973 2°55.538 7.170333 3.227067 31.234099  
2002-02-21 09:57:56 51°15.973 2°55.534 7.170333 3.227067 31.234099  
2002-02-21 09:58:01 51°15.973 2°55.53 7.169696 3.226867 31.231191  
2002-02-21 09:58:06 51°15.972 2°55.524 7.170725 3.227268 31.235485  
2002-02-21 09:58:11 51°15.973 2°55.521 7.170235 3.227468 31.238393  
2002-02-21 09:58:16 51°15.972 2°55.515 7.250207 3.227268 31.235485  
2002-02-21 09:58:21 51°15.973 2°55.511 7.170333 3.227067 31.232577  
2002-02-21 09:58:26 51°15.972 2°55.506 7.170333 3.227067 31.232577  
2002-02-21 09:58:31 51°15.973 2°55.502 7.209426 3.227768 31.241613  
2002-02-21 09:58:36 51°15.972 2°55.497 7.247809 3.227768 31.243135  
2002-02-21 09:58:41 51°15.973 2°55.493 7.208397 3.227869 31.242686  
2002-02-21 09:58:46 51°15.972 2°55.488 7.167735 3.227969 31.244521  
2002-02-21 09:58:51 51°15.973 2°55.484 7.167735 3.227969 31.244521  
2002-02-21 09:58:56 51°15.973 2°55.481 7.208397 3.227368 31.238841  
2002-02-21 09:59:01 51°15.973 2°55.475 7.168667 3.227668 31.240539  
2002-02-21 09:59:06 51°15.973 2°55.472 7.168127 3.228269 31.248503  
2002-02-21 09:59:11 51°15.973 2°55.467 7.167147 3.228269 31.249264  
2002-02-21 09:59:16 51°15.973 2°55.463 7.16651 3.228169 31.249713  
2002-02-21 09:59:21 51°15.973 2°55.458 7.165971 3.228069 31.247878  
2002-02-21 09:59:26 51°15.973 2°55.454 7.165971 3.228069 31.247878  
2002-02-21 09:59:31 51°15.974 2°55.449 7.205214 3.227969 31.245282  
2002-02-21 09:59:36 51°15.974 2°55.445 7.164501 3.227969 31.246043  
2002-02-21 09:59:41 51°15.974 2°55.439 7.164158 3.228169 31.248951  
2002-02-21 09:59:46 51°15.975 2°55.436 7.205556 3.228069 31.247878  
2002-02-21 09:59:51 51°15.975 2°55.428 7.205556 3.228069 31.247878  
2002-02-21 09:59:56 51°15.976 2°55.426 7.165285 3.227969 31.248327  
2002-02-21 10:00:01 51°15.975 2°55.419 7.166608 3.22897 31.259063  
2002-02-21 10:00:06 51°15.976 2°55.416 7.167833 3.229671 31.267341  
2002-02-21 10:00:11 51°15.976 2°55.41 7.167735 3.230573 31.277766  
2002-02-21 10:00:16 51°15.977 2°55.404 7.167 3.230272 31.274545  
2002-02-21 10:00:21 51°15.977 2°55.4 7.167049 3.229771 31.269176  
2002-02-21 10:00:26 51°15.978 2°55.395 7.167049 3.229771 31.269176  
2002-02-21 10:00:31 51°15.977 2°55.389 7.168618 3.22887 31.259512  
2002-02-21 10:00:36 51°15.978 2°55.384 7.209964 3.228369 31.25186  
2002-02-21 10:00:41 51°15.978 2°55.378 7.170872 3.227468 31.24372  
2002-02-21 10:00:46 51°15.979 2°55.374 7.171411 3.227268 31.241573  
2002-02-21 10:00:51 51°15.978 2°55.367 7.252116 3.226667 31.235131  
2002-02-21 10:00:56 51°15.98 2°55.363 7.252116 3.226667 31.235131  
2002-02-21 10:01:01 51°15.979 2°55.357 7.212658 3.226567 31.234057  
2002-02-21 10:01:06 51°15.981 2°55.353 7.173714 3.225665 31.223635  
2002-02-21 10:01:11 51°15.981 2°55.347 7.213392 3.225165 31.216747  
2002-02-21 10:01:16 51°15.982 2°55.343 7.174155 3.224964 31.213839  
2002-02-21 10:01:21 51°15.983 2°55.337 7.174449 3.224764 31.210172  
2002-02-21 10:01:26 51°15.984 2°55.333 7.174449 3.224764 31.210172  
2002-02-21 10:01:31 51°15.984 2°55.326 7.174204 3.224964 31.212319  
2002-02-21 10:01:36 51°15.986 2°55.323 7.175086 3.224764 31.209412  
2002-02-21 10:01:41 51°15.986 2°55.317 7.175821 3.224764 31.208652  
2002-02-21 10:01:46 51°15.988 2°55.313 7.175086 3.225165 31.212945  
2002-02-21 10:01:51 51°15.989 2°55.309 7.214372 3.225065 31.211872  
2002-02-21 10:01:56 51°15.99 2°55.304 7.214372 3.225065 31.211872  
2002-02-21 10:02:01 51°15.99 2°55.3 7.214323 3.224864 31.209725  
2002-02-21 10:02:06 51°15.992 2°55.296 7.174106 3.224964 31.210798  
2002-02-21 10:02:11 51°15.993 2°55.291 7.172489 3.224864 31.209725  
2002-02-21 10:02:16 51°15.994 2°55.287 7.172097 3.224964 31.209278  
2002-02-21 10:02:21 51°15.995 2°55.283 7.172097 3.224964 31.209278  
2002-02-21 10:02:26 51°15.996 2°55.279 7.172342 3.225065 31.210351  
2002-02-21 10:02:31 51°15.997 2°55.275 7.171313 3.224764 31.208652  
2002-02-21 10:02:36 51°15.997 2°55.27 7.170284 3.224664 31.206818